ADDS METAR Data INFO
IDs: Format: Raw Decoded Include TAF

Data at: 0258 UTC 21 Jan 2018

KPUB 210253Z 05012KT 10SM CLR 07/M04 A2968 RMK AO2 WSHFT 0201 SLP046 T00671039 53011
KPUB 210221Z 06022G25KT 10SM CLR 09/M04 A2967 RMK AO2 WSHFT 0201 T00891044
KPUB 210153Z 20008KT 10SM CLR 16/M08 A2963 RMK AO2 SLP019 T01561083
KPUB 210053Z VRB04KT 10SM CLR 17/M08 A2965 RMK AO2 SLP020 T01721083
KPUB 202353Z 25007KT 10SM CLR 17/M08 A2965 RMK AO2 SLP016 T01671083 10211 20144 55002
KPUB 202253Z 26012KT 10SM CLR 19/M09 A2964 RMK AO2 SLP010 T01941089
KPUB 202153Z 22007KT 10SM CLR 21/M08 A2964 RMK AO2 SLP010 T02061083
KPUB 202053Z VRB04G17KT 10SM CLR 20/M07 A2965 RMK AO2 SLP016 T02001072 56031
KPUB 201953Z 28004KT 10SM CLR 20/M07 A2966 RMK AO2 SLP017 T02001072
KPUB 201853Z VRB03KT 10SM CLR 18/M07 A2971 RMK AO2 SLP035 T01831067
KPUB 201753Z 00000KT 10SM CLR 16/M07 A2976 RMK AO2 SLP055 T01561067 10156 21033 58005
KPUB 201653Z 29007KT 10SM CLR 14/M07 A2978 RMK AO2 SLP059 T01441067
KPUB 201553Z 30008KT 10SM CLR 08/M07 A2978 RMK AO2 SLP071 T00831067
KPUB 201453Z 33007KT 10SM CLR 02/M08 A2977 RMK AO2 SLP078 T00171078 51007
KPUB 201353Z 28003KT 10SM CLR M01/M08 A2977 RMK AO2 SLP077 T10111083
KPUB 201253Z 00000KT 10SM CLR M01/M08 A2976 RMK AO2 SLP059 T10061083
KPUB 201153Z AUTO 29009KT 10SM CLR 01/M08 A2975 RMK AO2 SLP049 T00111083 10022 21022 57003
KPUB 201053Z AUTO 27008KT 10SM CLR 00/M08 A2975 RMK AO2 SLP047 T00001078
KPUB 200953Z AUTO 00000KT 10SM CLR 00/M08 A2976 RMK AO2 SLP048 T00001083
KPUB 200853Z AUTO 28005KT 10SM CLR M01/M08 A2976 RMK AO2 SLP050 T10111083 56005
KPUB 200753Z AUTO 00000KT 10SM CLR 01/M08 A2976 RMK AO2 SLP051 T00061083
KPUB 200653Z 30007KT 10SM CLR 01/M08 A2977 RMK AO2 SLP056 T00111083 402221050
KPUB 200553Z 28006KT 10SM CLR 02/M08 A2978 RMK AO2 SLP059 T00221078 10189 20022 50001
KPUB 200453Z 24005KT 10SM CLR 05/M07 A2978 RMK AO2 SLP059 T00501072
KPUB 200353Z 24006KT 10SM CLR 06/M08 A2977 RMK AO2 SLP073 T00611083
KPUB 200253Z 27007KT 10SM CLR 07/M09 A2977 RMK AO2 SLP082 T00671089 51009
KPUB 200153Z 28010KT 10SM CLR 10/M09 A2976 RMK AO2 SLP075 T01001089
KPUB 200053Z 28011KT 10SM CLR 17/M09 A2976 RMK AO2 SLP066 T01721089
KPUB 192353Z 21005KT 10SM CLR 18/M09 A2974 RMK AO2 SLP057 T01831094 10222 20178 52008
KPUB 192253Z VRB06KT 10SM CLR 21/M09 A2974 RMK AO2 SLP051 T02061094
KPUB 192153Z 28014G24KT 10SM CLR 22/M11 A2972 RMK AO2 SLP043 T02221106
KPUB 192053Z 27010G18KT 230V290 10SM CLR 22/M09 A2972 RMK AO2 SLP039 T02171094 56031
KPUB 191953Z 25006KT 10SM CLR 20/M09 A2974 RMK AO2 SLP054 T02001094
KPUB 191853Z 00000KT 10SM CLR 19/M09 A2978 RMK AO2 SLP066 T01891089
KPUB 191753Z 26008KT 10SM CLR 18/M08 A2982 RMK AO2 SLP080 T01781083 10178 21050 58005
KPUB 191653Z 27014KT 10SM CLR 15/M09 A2984 RMK AO2 SLP092 T01501089
KPUB 191553Z 25007KT 10SM CLR 05/M07 A2984 RMK AO2 SLP109 T00501072